Time;durP1;ratioP1;P1;durP2;ratioP2;P2;SDS_P1;SDS_P2;PMS_P1;PMS_P2;Temp;Humidity;BMP_temperature;BMP_pressure;BME280_temperature;BME280_humidity;BME280_pressure;Samples;Min_cycle;Max_cycle;Signal;HPM_P1;HPM_P2
2021/12/06 00:01:12;;;;;;;0.10;0.10;;;;;;;2.11;89.58;101416.66;5037377;28;20040;-73
2021/12/06 00:03:56;;;;;;;0.10;0.10;;;;;;;2.13;89.59;101427.97;5036825;28;20328;-74
2021/12/06 00:06:23;;;;;;;0.10;0.10;;;;;;;2.15;89.59;101430.69;5038126;28;20647;-73
2021/12/06 00:08:48;;;;;;;0.10;0.10;;;;;;;2.16;89.61;101425.63;5036410;28;20295;-74
2021/12/06 00:11:14;;;;;;;0.10;0.10;;;;;;;2.19;89.60;101425.84;5036292;28;20287;-73
2021/12/06 00:13:43;;;;;;;0.10;0.10;;;;;;;2.20;89.40;101425.06;5027258;28;20030;-75
2021/12/06 00:16:14;;;;;;;0.10;0.10;;;;;;;2.24;89.50;101427.88;5037350;28;20276;-74
2021/12/06 00:18:39;;;;;;;0.10;0.10;;;;;;;2.29;89.30;101429.09;5049591;28;20353;-74
2021/12/06 00:21:06;;;;;;;0.07;0.07;;;;;;;2.28;89.35;101429.88;5055522;28;20311;-74
2021/12/06 00:23:32;;;;;;;0.10;0.10;;;;;;;2.28;89.50;101440.22;5036107;28;20276;-74
2021/12/06 00:25:57;;;;;;;0.07;0.07;;;;;;;2.28;89.27;101437.63;5044144;28;20329;-74
2021/12/06 00:28:24;;;;;;;0.10;0.10;;;;;;;2.28;89.31;101435.97;5056947;28;20060;-73
2021/12/06 00:30:50;;;;;;;0.63;0.63;;;;;;;2.29;89.20;101435.16;5048747;28;20029;-73
2021/12/06 00:33:16;;;;;;;0.10;0.10;;;;;;;2.30;89.21;101443.84;5053096;28;20290;-74
2021/12/06 00:35:41;;;;;;;0.10;0.10;;;;;;;2.30;89.18;101442.13;5054477;28;20279;-74
2021/12/06 00:38:07;;;;;;;0.00;0.00;;;;;;;2.31;89.26;101443.03;5043614;28;20046;-74
2021/12/06 00:40:36;;;;;;;0.10;0.10;;;;;;;2.33;89.06;101454.38;5041171;28;20075;-74
2021/12/06 00:43:02;;;;;;;0.10;0.10;;;;;;;2.33;89.16;101456.97;5029445;28;20430;-75
2021/12/06 00:45:28;;;;;;;0.10;0.10;;;;;;;2.35;89.04;101454.50;5034070;28;20292;-75
2021/12/06 00:47:54;;;;;;;0.27;0.27;;;;;;;2.36;89.01;101452.00;5034335;28;20315;-74
2021/12/06 00:50:23;;;;;;;0.13;0.13;;;;;;;2.37;88.97;101464.13;5018311;28;20732;-73
2021/12/06 00:52:49;;;;;;;0.07;0.07;;;;;;;2.45;88.86;101468.16;5032634;28;20339;-75
2021/12/06 00:55:15;;;;;;;0.10;0.10;;;;;;;2.45;88.71;101477.63;5030599;28;20330;-74
2021/12/06 00:57:41;;;;;;;0.00;0.00;;;;;;;2.42;88.63;101480.88;5029944;28;20272;-75
2021/12/06 01:00:11;;;;;;;0.17;0.17;;;;;;;2.42;88.83;101475.72;5017436;28;20283;-75
2021/12/06 01:02:36;;;;;;;0.10;0.10;;;;;;;2.41;88.39;101475.59;5031319;28;20407;-74
2021/12/06 01:05:03;;;;;;;0.10;0.10;;;;;;;2.44;88.51;101489.63;5022976;28;20288;-74
2021/12/06 01:07:28;;;;;;;0.10;0.10;;;;;;;2.42;88.40;101492.94;5024339;28;20044;-78
2021/12/06 01:09:54;;;;;;;0.00;0.00;;;;;;;2.47;87.86;101494.13;5034520;28;20280;-75
2021/12/06 01:12:19;;;;;;;0.20;0.20;;;;;;;2.41;88.34;101499.78;5018410;28;20037;-75
2021/12/06 01:14:45;;;;;;;0.10;0.10;;;;;;;2.45;88.18;101509.53;5018562;28;20077;-75
2021/12/06 01:17:10;;;;;;;0.30;0.30;;;;;;;2.45;87.95;101500.91;5023576;28;20501;-75
2021/12/06 01:19:37;;;;;;;0.10;0.10;;;;;;;2.40;87.91;101515.16;5036886;28;20106;-74
2021/12/06 01:24:44;;;;;;;0.10;0.10;;;;;;;2.38;88.18;101514.16;5027816;28;20292;-75
2021/12/06 01:30:01;;;;;;;0.20;0.20;;;;;;;2.36;88.05;101519.22;5016082;28;20289;-75
2021/12/06 01:33:01;;;;;;;0.17;0.17;;;;;;;2.36;88.30;101518.31;5024752;28;20276;-76
2021/12/06 01:40:47;;;;;;;0.10;0.10;;;;;;;2.40;88.03;101515.16;5023449;28;20279;-75
2021/12/06 01:43:12;;;;;;;0.10;0.10;;;;;;;2.39;88.31;101526.28;5035875;28;20264;-76
2021/12/06 01:45:37;;;;;;;0.17;0.17;;;;;;;2.39;88.09;101527.22;5034794;28;20040;-74
2021/12/06 01:48:03;;;;;;;0.10;0.10;;;;;;;2.40;88.40;101529.00;5035507;28;20026;-77
2021/12/06 01:50:29;;;;;;;0.20;0.20;;;;;;;2.47;88.07;101527.75;5038947;28;20292;-75
2021/12/06 01:52:58;;;;;;;0.37;0.37;;;;;;;2.44;87.98;101528.41;5039800;28;20032;-75
2021/12/06 01:55:32;;;;;;;0.10;0.10;;;;;;;2.43;88.13;101523.16;5039973;28;20024;-74
2021/12/06 01:57:57;;;;;;;0.20;0.20;;;;;;;2.43;88.22;101524.03;5035115;28;20303;-75
2021/12/06 02:00:45;;;;;;;0.03;0.03;;;;;;;2.45;88.07;101526.75;5038642;28;20300;-75
2021/12/06 02:03:10;;;;;;;0.00;0.00;;;;;;;2.42;87.91;101519.66;5019646;28;20085;-75
2021/12/06 02:05:38;;;;;;;0.00;0.00;;;;;;;2.42;88.30;101524.84;5026932;28;20296;-75
2021/12/06 02:08:04;;;;;;;0.10;0.10;;;;;;;2.43;88.09;101521.44;5033816;28;20446;-75
2021/12/06 02:10:30;;;;;;;0.30;0.30;;;;;;;2.43;88.33;101518.00;5027315;28;20663;-75
2021/12/06 02:12:56;;;;;;;0.20;0.20;;;;;;;2.42;88.32;101526.53;5038947;28;20298;-74
2021/12/06 02:18:06;;;;;;;0.10;0.10;;;;;;;2.41;88.24;101516.94;5032925;28;20033;-75
2021/12/06 02:20:36;;;;;;;0.10;0.10;;;;;;;2.41;88.17;101517.88;5023600;28;20282;-75
2021/12/06 02:23:02;;;;;;;0.17;0.17;;;;;;;2.41;88.11;101515.28;5039732;28;20282;-76
2021/12/06 02:25:28;;;;;;;0.10;0.10;;;;;;;2.43;88.09;101508.53;5038187;28;20283;-74
2021/12/06 02:27:55;;;;;;;0.10;0.10;;;;;;;2.44;87.93;101506.84;5039367;28;20353;-74
2021/12/06 02:30:21;;;;;;;0.20;0.20;;;;;;;2.43;87.82;101508.53;5034535;28;20291;-75
2021/12/06 02:32:48;;;;;;;0.20;0.20;;;;;;;2.43;87.96;101516.28;5031011;28;20281;-74
2021/12/06 02:35:18;;;;;;;0.10;0.10;;;;;;;2.43;88.11;101508.53;5029523;28;20025;-76
2021/12/06 02:37:44;;;;;;;0.10;0.10;;;;;;;2.42;88.12;101513.59;5039950;28;20290;-74
2021/12/06 02:40:20;;;;;;;0.10;0.10;;;;;;;2.39;88.08;101511.69;5038422;28;20269;-76
2021/12/06 02:42:46;;;;;;;0.20;0.20;;;;;;;2.38;88.02;101509.00;5039543;28;20383;-74
2021/12/06 02:45:14;;;;;;;0.00;0.00;;;;;;;2.36;87.93;101514.03;5033205;28;20041;-74
2021/12/06 02:47:40;;;;;;;0.20;0.20;;;;;;;2.32;87.92;101515.50;5037554;28;20294;-75
2021/12/06 02:50:08;;;;;;;0.10;0.10;;;;;;;2.30;88.12;101509.34;5038928;28;20271;-75
2021/12/06 02:52:34;;;;;;;0.10;0.10;;;;;;;2.25;87.99;101507.22;5037814;28;20029;-75
2021/12/06 02:55:01;;;;;;;0.20;0.20;;;;;;;2.20;87.94;101512.03;5038064;28;20081;-75
2021/12/06 02:57:35;;;;;;;0.10;0.10;;;;;;;2.13;87.92;101507.22;5038913;28;20025;-75
2021/12/06 03:00:06;;;;;;;0.13;0.13;;;;;;;2.04;88.06;101515.16;5037015;28;20292;-75
2021/12/06 03:02:32;;;;;;;0.30;0.30;;;;;;;1.97;88.08;101515.50;5037992;28;20268;-76
2021/12/06 03:04:57;;;;;;;0.03;0.03;;;;;;;1.88;87.89;101513.16;5029136;28;20302;-76
2021/12/06 03:07:25;;;;;;;0.00;0.00;;;;;;;1.82;88.15;101510.09;5038510;28;20454;-74
2021/12/06 03:09:53;;;;;;;0.10;0.10;;;;;;;1.74;88.34;101513.00;5037955;28;20024;-75
2021/12/06 03:12:21;;;;;;;0.10;0.10;;;;;;;1.70;88.15;101520.41;5039203;28;20276;-75
2021/12/06 03:14:50;;;;;;;0.10;0.10;;;;;;;1.67;88.42;101526.25;5038628;28;20283;-74
2021/12/06 03:17:17;;;;;;;0.10;0.10;;;;;;;1.61;88.67;101525.78;5038923;28;20272;-75
2021/12/06 03:19:43;;;;;;;0.10;0.10;;;;;;;1.53;88.50;101534.63;5020697;28;20296;-75
2021/12/06 03:22:11;;;;;;;0.27;0.27;;;;;;;1.48;88.10;101529.09;5035320;28;20304;-74
2021/12/06 03:24:38;;;;;;;0.20;0.20;;;;;;;1.43;88.67;101533.03;5021378;28;20297;-75
2021/12/06 03:27:04;;;;;;;0.10;0.10;;;;;;;1.37;88.63;101533.47;5019112;28;20304;-74
2021/12/06 03:29:30;;;;;;;0.10;0.10;;;;;;;1.35;88.85;101535.94;5037649;28;20331;-74
2021/12/06 03:31:55;;;;;;;0.10;0.10;;;;;;;1.33;88.93;101541.75;5038805;28;20615;-75
2021/12/06 03:34:26;;;;;;;0.30;0.30;;;;;;;1.32;89.05;101537.38;5039179;28;20029;-75
2021/12/06 03:36:53;;;;;;;0.20;0.20;;;;;;;1.31;89.16;101538.16;5036244;28;20044;-74
2021/12/06 03:39:25;;;;;;;0.10;0.10;;;;;;;1.26;89.03;101532.63;5018008;28;20284;-74
2021/12/06 03:41:56;;;;;;;0.17;0.17;;;;;;;1.19;88.93;101528.66;5037538;28;20296;-75
2021/12/06 03:44:22;;;;;;;0.20;0.20;;;;;;;1.15;89.05;101531.81;5038980;28;20341;-76
2021/12/06 03:46:50;;;;;;;0.10;0.10;;;;;;;1.11;88.95;101528.88;5037820;28;20280;-74
2021/12/06 03:49:16;;;;;;;0.13;0.13;;;;;;;1.06;89.08;101526.81;5037209;28;20021;-75
2021/12/06 03:51:43;;;;;;;0.20;0.20;;;;;;;1.03;89.15;101536.91;5037078;28;20611;-75
2021/12/06 03:54:13;;;;;;;0.10;0.10;;;;;;;0.98;89.09;101540.78;5033172;28;20279;-76
2021/12/06 03:56:40;;;;;;;0.10;0.10;;;;;;;0.95;89.22;101545.72;5018167;28;20593;-75
2021/12/06 03:59:06;;;;;;;0.20;0.20;;;;;;;0.91;89.29;101543.66;5031505;28;20946;-74
2021/12/06 04:01:32;;;;;;;0.20;0.20;;;;;;;0.89;89.46;101548.72;5036617;28;20287;-75
2021/12/06 04:03:59;;;;;;;0.10;0.10;;;;;;;0.89;89.54;101552.97;5038119;28;20284;-75
2021/12/06 04:06:24;;;;;;;0.10;0.10;;;;;;;0.88;89.46;101553.75;5031278;28;20048;-75
2021/12/06 04:08:50;;;;;;;0.17;0.17;;;;;;;0.85;89.58;101550.94;5038305;28;20308;-74
2021/12/06 04:11:16;;;;;;;0.20;0.20;;;;;;;0.79;89.30;101551.34;5027440;28;20372;-74
2021/12/06 04:13:41;;;;;;;0.10;0.10;;;;;;;0.71;89.36;101555.91;5018328;28;20367;-75
2021/12/06 04:16:07;;;;;;;0.20;0.20;;;;;;;0.66;89.29;101554.63;5018580;28;20315;-76
2021/12/06 04:18:33;;;;;;;1.07;1.07;;;;;;;0.63;89.23;101559.53;5018650;28;20037;-75
2021/12/06 04:20:59;;;;;;;0.10;0.10;;;;;;;0.60;89.37;101565.34;5018954;28;20042;-75
2021/12/06 04:23:24;;;;;;;0.10;0.10;;;;;;;0.60;89.43;101570.50;5027126;28;20034;-74
2021/12/06 04:25:50;;;;;;;0.20;0.20;;;;;;;0.62;89.47;101579.25;5017880;28;20038;-75
2021/12/06 04:28:18;;;;;;;0.30;0.30;;;;;;;0.65;89.73;101576.03;5018417;28;20071;-74
2021/12/06 04:30:43;;;;;;;0.07;0.07;;;;;;;0.67;89.80;101577.03;5035329;28;20136;-75
2021/12/06 04:33:09;;;;;;;0.20;0.20;;;;;;;0.65;89.40;101579.50;5027046;28;20298;-74
2021/12/06 04:35:36;;;;;;;0.27;0.27;;;;;;;0.65;89.90;101571.78;5018441;28;20373;-75
2021/12/06 04:38:03;;;;;;;0.20;0.20;;;;;;;0.68;90.12;101568.53;5017561;28;20068;-75
2021/12/06 04:40:28;;;;;;;0.30;0.30;;;;;;;0.71;89.99;101575.59;5016816;28;20287;-75
2021/12/06 04:42:57;;;;;;;0.10;0.10;;;;;;;0.69;90.03;101572.94;5017314;28;20571;-75
2021/12/06 04:45:22;;;;;;;0.10;0.10;;;;;;;0.68;89.95;101563.38;5021387;28;20033;-75
2021/12/06 04:47:49;;;;;;;0.20;0.20;;;;;;;0.63;89.96;101554.38;5037120;28;20546;-74
2021/12/06 04:50:16;;;;;;;0.10;0.10;;;;;;;0.59;89.88;101545.50;5037239;28;20017;-74
2021/12/06 04:52:42;;;;;;;0.20;0.20;;;;;;;0.55;89.93;101538.28;5036521;28;20318;-74
2021/12/06 04:55:21;;;;;;;0.00;0.00;;;;;;;0.49;89.82;101545.56;5033638;28;20319;-74
2021/12/06 04:57:47;;;;;;;0.10;0.10;;;;;;;0.41;89.97;101547.50;5036184;28;20033;-73
2021/12/06 05:00:15;;;;;;;0.30;0.30;;;;;;;0.37;89.64;101548.91;5017577;28;20374;-74
2021/12/06 05:02:41;;;;;;;0.20;0.20;;;;;;;0.35;89.81;101550.47;5016957;28;20754;-73
2021/12/06 05:05:16;;;;;;;0.10;0.10;;;;;;;0.33;89.66;101546.88;5030420;28;20308;-73
2021/12/06 05:07:50;;;;;;;0.10;0.10;;;;;;;0.30;89.82;101550.88;5016702;28;20288;-73
2021/12/06 05:10:15;;;;;;;0.27;0.27;;;;;;;0.25;89.59;101561.72;5023840;28;20275;-73
2021/12/06 05:12:41;;;;;;;0.20;0.20;;;;;;;0.20;89.79;101568.19;5036819;28;20858;-73
2021/12/06 05:15:08;;;;;;;0.30;0.30;;;;;;;0.18;89.72;101561.97;5036521;28;20289;-73
2021/12/06 05:17:35;;;;;;;0.20;0.20;;;;;;;0.14;89.71;101570.25;5016515;28;20344;-73
2021/12/06 05:20:00;;;;;;;0.10;0.10;;;;;;;0.09;89.58;101563.81;5015137;28;20366;-73
2021/12/06 05:22:27;;;;;;;0.20;0.20;;;;;;;0.05;89.55;101570.38;5019020;28;20678;-73
2021/12/06 05:24:52;;;;;;;0.10;0.10;;;;;;;0.03;89.59;101564.19;5034511;28;20045;-73
2021/12/06 05:27:27;;;;;;;0.10;0.10;;;;;;;0.03;89.64;101560.72;5039493;28;20288;-73
2021/12/06 05:29:56;;;;;;;0.10;0.10;;;;;;;0.03;89.72;101568.44;5041005;28;20029;-74
2021/12/06 05:32:25;;;;;;;0.20;0.20;;;;;;;0.01;89.80;101577.72;5040451;28;20342;-73
2021/12/06 05:34:57;;;;;;;0.30;0.30;;;;;;;0.01;89.74;101577.72;5040981;28;20264;-73
2021/12/06 05:37:22;;;;;;;0.10;0.10;;;;;;;0.04;89.83;101578.88;5040327;28;20320;-73
2021/12/06 05:39:48;;;;;;;0.10;0.10;;;;;;;0.08;90.08;101580.94;5039477;28;20322;-72
2021/12/06 05:42:13;;;;;;;0.20;0.20;;;;;;;0.13;90.07;101576.19;5039958;28;20075;-73
2021/12/06 05:44:40;;;;;;;0.20;0.20;;;;;;;0.17;90.01;101577.34;5039447;28;20041;-74
2021/12/06 05:47:05;;;;;;;0.10;0.10;;;;;;;0.20;90.04;101581.06;5040280;28;20033;-74
2021/12/06 05:49:31;;;;;;;0.20;0.20;;;;;;;0.29;90.11;101578.31;5039752;28;20296;-74
2021/12/06 05:51:57;;;;;;;0.20;0.20;;;;;;;0.37;90.23;101574.69;5026538;28;20052;-74
2021/12/06 05:54:23;;;;;;;0.10;0.10;;;;;;;0.54;90.42;101572.56;5020633;28;20392;-74
2021/12/06 05:56:49;;;;;;;0.10;0.10;;;;;;;0.64;90.32;101571.66;5020210;28;20022;-74
2021/12/06 05:59:15;;;;;;;0.10;0.10;;;;;;;0.71;90.41;101570.44;5020168;28;20291;-74
2021/12/06 06:01:40;;;;;;;0.10;0.10;;;;;;;0.76;90.24;101567.47;5036470;28;20392;-74
2021/12/06 06:04:06;;;;;;;0.00;0.00;;;;;;;0.84;90.19;101578.41;5039896;28;20302;-74
2021/12/06 06:06:33;;;;;;;0.10;0.10;;;;;;;0.95;90.48;101580.13;5039648;28;20040;-73
2021/12/06 06:08:59;;;;;;;0.20;0.20;;;;;;;1.06;90.34;101572.38;5040573;28;20096;-74
2021/12/06 06:11:25;;;;;;;0.07;0.07;;;;;;;1.12;90.47;101580.56;5039826;28;20280;-74
2021/12/06 06:13:50;;;;;;;0.10;0.10;;;;;;;1.16;90.46;101582.63;5033711;28;20581;-74
2021/12/06 06:16:19;;;;;;;0.10;0.10;;;;;;;1.17;90.49;101584.41;5020283;28;20038;-75
2021/12/06 06:18:47;;;;;;;0.20;0.20;;;;;;;1.20;90.29;101584.66;5024387;28;20033;-74
2021/12/06 06:21:13;;;;;;;0.10;0.10;;;;;;;1.21;90.21;101580.41;5039557;28;20312;-74
2021/12/06 06:23:39;;;;;;;0.10;0.10;;;;;;;1.23;89.96;101581.41;5036449;28;20322;-74
2021/12/06 06:26:04;;;;;;;0.10;0.10;;;;;;;1.26;90.33;101573.00;5035468;28;20376;-74
2021/12/06 06:28:30;;;;;;;0.13;0.13;;;;;;;1.29;90.40;101581.91;5037868;28;20418;-73
2021/12/06 06:30:55;;;;;;;0.10;0.10;;;;;;;1.30;90.40;101575.06;5036303;28;20047;-73
2021/12/06 06:33:21;;;;;;;0.00;0.00;;;;;;;1.35;90.23;101587.53;5035657;28;20388;-74
2021/12/06 06:35:46;;;;;;;0.10;0.10;;;;;;;1.36;89.90;101597.09;5039164;28;20070;-74
2021/12/06 06:38:12;;;;;;;0.10;0.10;;;;;;;1.35;89.96;101599.53;5039003;28;20142;-74
2021/12/06 06:40:38;;;;;;;0.10;0.10;;;;;;;1.35;90.44;101596.94;5038751;28;20382;-74
2021/12/06 06:43:05;;;;;;;0.10;0.10;;;;;;;1.37;90.07;101598.88;5039702;28;20051;-73
2021/12/06 06:45:31;;;;;;;0.10;0.10;;;;;;;1.43;90.20;101594.97;5022054;28;20045;-74
2021/12/06 06:47:56;;;;;;;0.20;0.20;;;;;;;1.43;90.15;101602.72;5039775;28;20547;-75
2021/12/06 06:50:23;;;;;;;0.10;0.10;;;;;;;1.43;90.25;101601.03;5037426;28;20092;-74
2021/12/06 06:52:51;;;;;;;0.10;0.10;;;;;;;1.41;90.25;101607.75;5039335;28;20109;-73
2021/12/06 06:55:18;;;;;;;0.10;0.10;;;;;;;1.43;90.30;101613.06;5023269;28;20323;-73
2021/12/06 06:57:44;;;;;;;0.10;0.10;;;;;;;1.44;90.28;101609.69;5019004;28;20281;-74
2021/12/06 07:00:13;;;;;;;0.10;0.10;;;;;;;1.46;90.18;101605.53;5034495;28;20330;-74
2021/12/06 07:02:39;;;;;;;0.10;0.10;;;;;;;1.42;90.03;101598.34;5038807;28;20037;-73
2021/12/06 07:05:06;;;;;;;0.30;0.30;;;;;;;1.37;90.04;101598.88;5039288;28;20299;-74
2021/12/06 07:07:32;;;;;;;0.10;0.10;;;;;;;1.36;90.15;101594.50;5038083;28;20049;-74
2021/12/06 07:09:57;;;;;;;0.07;0.07;;;;;;;1.45;90.20;101585.66;5038836;28;20570;-74
2021/12/06 07:12:23;;;;;;;0.10;0.10;;;;;;;1.41;90.25;101592.28;5039447;28;20100;-75
2021/12/06 07:14:48;;;;;;;0.10;0.10;;;;;;;1.48;90.34;101575.56;5038459;28;20045;-74
2021/12/06 07:17:15;;;;;;;0.10;0.10;;;;;;;1.46;90.02;101575.47;5038947;28;20108;-74
2021/12/06 07:19:40;;;;;;;0.10;0.10;;;;;;;1.46;90.36;101578.06;5024787;28;20104;-75
2021/12/06 07:22:06;;;;;;;0.20;0.20;;;;;;;1.48;90.18;101573.91;5023150;28;20554;-74
2021/12/06 07:24:32;;;;;;;0.10;0.10;;;;;;;1.52;90.22;101569.88;5037743;28;20034;-74
2021/12/06 07:26:57;;;;;;;0.10;0.10;;;;;;;1.54;90.19;101568.31;5022806;28;20030;-75
2021/12/06 07:29:23;;;;;;;0.10;0.10;;;;;;;1.58;90.29;101559.13;5019091;28;20025;-74
2021/12/06 07:31:49;;;;;;;0.10;0.10;;;;;;;1.63;90.33;101568.13;5025457;28;20123;-74
2021/12/06 07:34:15;;;;;;;0.10;0.10;;;;;;;1.60;90.30;101555.88;5038176;28;20025;-74
2021/12/06 07:36:40;;;;;;;0.00;0.00;;;;;;;1.67;90.30;101564.97;5037651;28;20029;-75
2021/12/06 07:39:06;;;;;;;0.20;0.20;;;;;;;1.63;90.12;101569.00;5038903;28;20315;-75
2021/12/06 07:41:32;;;;;;;0.10;0.10;;;;;;;1.64;90.27;101572.50;5037536;28;20060;-74
2021/12/06 07:43:58;;;;;;;0.10;0.10;;;;;;;1.66;90.20;101572.63;5038075;28;20025;-74
2021/12/06 07:46:24;;;;;;;0.10;0.10;;;;;;;1.69;90.27;101572.84;5038395;28;20033;-76
2021/12/06 07:48:52;;;;;;;0.00;0.00;;;;;;;1.69;90.37;101572.84;5028195;28;20340;-75
2021/12/06 07:51:23;;;;;;;0.10;0.10;;;;;;;1.69;90.43;101576.34;5018837;28;20272;-76
2021/12/06 07:53:48;;;;;;;0.10;0.10;;;;;;;1.72;90.18;101567.91;5034766;28;20322;-73
2021/12/06 07:56:14;;;;;;;0.03;0.03;;;;;;;1.71;90.42;101560.94;5037933;28;20355;-73
2021/12/06 07:58:40;;;;;;;0.10;0.10;;;;;;;1.72;90.26;101568.81;5027175;28;20418;-75
2021/12/06 08:01:06;;;;;;;0.00;0.00;;;;;;;1.74;90.01;101568.94;5018823;28;20333;-75
2021/12/06 08:03:31;;;;;;;0.10;0.10;;;;;;;1.76;90.33;101578.56;5025071;28;20283;-74
2021/12/06 08:05:58;;;;;;;0.20;0.20;;;;;;;1.75;90.14;101574.19;5027864;28;20025;-75
2021/12/06 08:08:27;;;;;;;0.10;0.10;;;;;;;1.73;90.19;101577.44;5017923;28;20029;-74
2021/12/06 08:10:55;;;;;;;0.10;0.10;;;;;;;1.72;90.24;101589.47;5017231;28;20285;-75
2021/12/06 08:13:24;;;;;;;0.10;0.10;;;;;;;1.71;90.22;101590.25;5022239;28;20272;-74
2021/12/06 08:15:52;;;;;;;0.10;0.10;;;;;;;1.73;90.79;101596.44;5036821;28;20268;-75
2021/12/06 08:18:18;;;;;;;0.10;0.10;;;;;;;1.77;90.17;101597.56;5020541;28;20279;-73
2021/12/06 08:20:43;;;;;;;0.17;0.17;;;;;;;1.79;90.29;101601.16;5033085;28;20292;-74
2021/12/06 08:23:10;;;;;;;0.10;0.10;;;;;;;1.76;90.15;101608.69;5024907;28;20021;-76
2021/12/06 08:25:36;;;;;;;0.10;0.10;;;;;;;1.73;89.98;101604.19;5017531;28;20030;-75
2021/12/06 08:28:02;;;;;;;0.10;0.10;;;;;;;1.73;90.11;101608.44;5022179;28;20674;-74
2021/12/06 08:30:27;;;;;;;0.10;0.10;;;;;;;1.82;90.08;101609.16;5030109;28;20295;-73
2021/12/06 08:32:55;;;;;;;0.10;0.10;;;;;;;1.75;89.91;101602.59;5022023;28;20038;-73
2021/12/06 08:35:21;;;;;;;0.10;0.10;;;;;;;1.73;90.02;101605.84;5019317;28;20124;-73
2021/12/06 08:37:47;;;;;;;0.10;0.10;;;;;;;1.69;90.06;101601.25;5026503;28;20356;-74
2021/12/06 08:40:15;;;;;;;0.10;0.10;;;;;;;1.70;90.07;101596.22;5016438;28;20034;-75
2021/12/06 08:42:41;;;;;;;0.10;0.10;;;;;;;1.70;90.16;101596.22;5031212;28;20045;-74
2021/12/06 08:45:08;;;;;;;0.00;0.00;;;;;;;1.71;90.22;101595.44;5037111;28;20291;-74
2021/12/06 08:47:33;;;;;;;0.00;0.00;;;;;;;1.75;90.30;101599.16;5037024;28;20342;-74
2021/12/06 08:49:58;;;;;;;0.07;0.07;;;;;;;1.80;90.10;101600.38;5036228;28;20288;-73
2021/12/06 08:52:24;;;;;;;0.10;0.10;;;;;;;1.79;90.23;101596.00;5019386;28;20412;-74
2021/12/06 08:54:49;;;;;;;0.10;0.10;;;;;;;1.83;90.02;101590.28;5036786;28;20296;-74
2021/12/06 08:57:15;;;;;;;0.10;0.10;;;;;;;1.85;89.88;101580.06;5035587;28;20335;-74
2021/12/06 08:59:40;;;;;;;0.07;0.07;;;;;;;1.87;89.92;101578.50;5035042;28;20037;-74
2021/12/06 09:02:06;;;;;;;0.10;0.10;;;;;;;1.89;89.99;101574.34;5037316;28;20037;-75
2021/12/06 09:04:37;;;;;;;0.10;0.10;;;;;;;1.87;89.70;101573.34;5036508;28;20095;-73
2021/12/06 09:07:09;;;;;;;0.10;0.10;;;;;;;1.89;89.98;101574.34;5036494;28;20044;-74
2021/12/06 09:09:35;;;;;;;0.00;0.00;;;;;;;1.94;89.83;101573.03;5022387;28;20686;-73
2021/12/06 09:12:00;;;;;;;0.10;0.10;;;;;;;1.94;89.60;101570.44;5029324;28;20396;-73
2021/12/06 09:14:27;;;;;;;0.20;0.20;;;;;;;1.96;89.76;101565.38;5016367;28;20423;-74
2021/12/06 09:16:53;;;;;;;0.20;0.20;;;;;;;1.98;89.81;101564.72;5016478;28;20109;-73
2021/12/06 09:19:19;;;;;;;0.00;0.00;;;;;;;2.10;89.55;101563.84;5023259;28;20642;-74
2021/12/06 09:21:44;;;;;;;0.10;0.10;;;;;;;2.09;89.14;101557.75;5035522;28;20458;-74
2021/12/06 09:24:14;;;;;;;0.20;0.20;;;;;;;2.09;89.29;101560.34;5035100;28;20024;-74
2021/12/06 09:26:43;;;;;;;0.20;0.20;;;;;;;2.18;89.17;101567.91;5025844;28;20042;-76
2021/12/06 09:29:08;;;;;;;0.10;0.10;;;;;;;2.16;88.95;101582.34;5030398;28;20543;-74
2021/12/06 09:31:34;;;;;;;0.00;0.00;;;;;;;2.16;89.00;101598.78;5036534;28;20280;-73
2021/12/06 09:33:59;;;;;;;0.10;0.10;;;;;;;2.15;89.21;101590.91;5036230;28;20032;-72
2021/12/06 09:36:25;;;;;;;0.10;0.10;;;;;;;2.15;88.81;101593.47;5021292;28;20048;-75
2021/12/06 09:38:51;;;;;;;0.10;0.10;;;;;;;2.13;88.79;101593.34;5032399;28;20083;-75
2021/12/06 09:41:25;;;;;;;0.07;0.07;;;;;;;2.13;88.79;101598.53;5034789;28;20041;-74
2021/12/06 09:43:53;;;;;;;0.20;0.20;;;;;;;2.19;88.46;101592.94;5037423;28;20030;-74
2021/12/06 09:46:20;;;;;;;0.00;0.00;;;;;;;2.19;88.26;101587.78;5037223;28;20749;-74
2021/12/06 09:48:47;;;;;;;0.10;0.10;;;;;;;2.20;88.36;101579.22;5029496;28;20609;-74
2021/12/06 09:51:17;;;;;;;0.10;0.10;;;;;;;2.16;88.44;101585.84;5017280;28;20304;-74
2021/12/06 09:53:48;;;;;;;0.10;0.10;;;;;;;2.23;88.39;101586.31;5031846;28;20287;-74
2021/12/06 09:56:20;;;;;;;0.10;0.10;;;;;;;2.19;88.61;101588.66;5033074;28;20290;-77
2021/12/06 09:58:46;;;;;;;0.10;0.10;;;;;;;2.22;88.52;101587.09;5031806;28;20531;-78
2021/12/06 10:01:21;;;;;;;0.10;0.10;;;;;;;2.24;88.35;101585.53;5032610;28;20279;-76
2021/12/06 10:03:49;;;;;;;0.10;0.10;;;;;;;2.26;88.39;101581.38;5029569;28;20072;-76
2021/12/06 10:06:16;;;;;;;0.23;0.23;;;;;;;2.30;88.23;101579.13;5017663;28;20057;-79
2021/12/06 10:08:44;;;;;;;0.10;0.10;;;;;;;2.37;87.96;101577.88;5024432;28;20292;-76
2021/12/06 10:11:12;;;;;;;0.10;0.10;;;;;;;2.40;87.57;101567.78;5023660;28;20364;-76
2021/12/06 10:13:39;;;;;;;0.10;0.10;;;;;;;2.37;87.17;101559.78;5041250;28;20268;-78
2021/12/06 10:16:06;;;;;;;0.10;0.10;;;;;;;2.44;87.09;101555.97;5040225;28;20264;-78
2021/12/06 10:18:31;;;;;;;0.20;0.20;;;;;;;2.43;86.62;101552.47;5039649;28;20272;-77
2021/12/06 10:20:57;;;;;;;0.10;0.10;;;;;;;2.43;86.57;101538.66;5040091;28;20284;-77
2021/12/06 10:23:23;;;;;;;0.13;0.13;;;;;;;2.49;86.65;101528.75;5040097;28;20025;-77
2021/12/06 10:25:51;;;;;;;0.10;0.10;;;;;;;2.46;86.60;101513.03;5039556;28;20021;-78
2021/12/06 10:28:18;;;;;;;0.20;0.20;;;;;;;2.46;86.69;101507.84;5039296;28;20045;-76
2021/12/06 10:30:51;;;;;;;0.10;0.10;;;;;;;2.45;86.89;101506.06;5039587;28;20421;-76
2021/12/06 10:33:32;;;;;;;0.10;0.10;;;;;;;2.45;86.54;101509.53;5038510;28;20299;-76
2021/12/06 10:36:00;;;;;;;0.10;0.10;;;;;;;2.43;86.52;101503.34;5019504;28;20273;-79
2021/12/06 10:38:39;;;;;;;0.10;0.10;;;;;;;2.44;86.46;101493.94;5020180;28;20303;-78
2021/12/06 10:41:10;;;;;;;0.10;0.10;;;;;;;2.50;86.91;101488.28;5021985;28;20287;-79
2021/12/06 10:43:37;;;;;;;0.10;0.10;;;;;;;2.65;86.81;101491.06;5018683;28;20281;-79
2021/12/06 10:46:07;;;;;;;0.10;0.10;;;;;;;2.63;86.18;101488.38;5025748;28;20096;-83
2021/12/06 10:48:39;;;;;;;0.10;0.10;;;;;;;2.63;85.39;101474.53;5016969;28;20290;-82
2021/12/06 10:51:13;;;;;;;0.17;0.17;;;;;;;2.61;85.00;101470.16;5034437;28;20350;-79
2021/12/06 10:53:49;;;;;;;1.13;1.13;;;;;;;2.60;84.83;101470.03;5021702;28;20272;-79
2021/12/06 10:56:20;;;;;;;;;;;;;;;2.57;85.12;101468.13;5021928;28;20540;-78
2021/12/06 10:58:50;;;;;;;0.30;0.30;;;;;;;2.64;84.43;101460.81;5027254;28;20259;-77
2021/12/06 11:01:18;;;;;;;0.17;0.17;;;;;;;2.58;84.62;101453.53;5020506;28;20637;-79
2021/12/06 11:03:51;;;;;;;0.20;0.20;;;;;;;2.57;84.59;101454.31;5035498;28;20351;-77
2021/12/06 11:06:24;;;;;;;0.20;0.20;;;;;;;2.53;84.76;101457.47;5037161;28;20626;-76
2021/12/06 11:08:52;;;;;;;0.20;0.20;;;;;;;2.46;85.20;101443.22;5038710;28;20501;-77
2021/12/06 11:11:28;;;;;;;0.40;0.40;;;;;;;2.52;83.81;101440.16;5022102;28;20322;-76
2021/12/06 11:13:56;;;;;;;0.20;0.20;;;;;;;2.45;83.65;101436.25;5039602;28;20029;-77
2021/12/06 11:16:28;;;;;;;0.13;0.13;;;;;;;2.42;84.07;101430.88;5035184;28;20128;-81
2021/12/06 11:19:08;;;;;;;0.20;0.20;;;;;;;2.42;84.67;101421.41;5040451;28;20325;-81
2021/12/06 11:21:36;;;;;;;0.20;0.20;;;;;;;2.47;84.96;101412.31;5035565;28;20609;-80
2021/12/06 11:24:17;;;;;;;2.77;1.23;;;;;;;2.56;84.81;101413.75;5038923;28;20462;-79
2021/12/06 11:26:44;;;;;;;0.40;0.40;;;;;;;2.69;83.88;101407.75;5038365;28;20529;-79
2021/12/06 11:29:47;;;;;;;0.10;0.10;;;;;;;2.70;83.29;101389.75;5029799;28;20675;-82
2021/12/06 11:32:16;;;;;;;0.30;0.30;;;;;;;2.69;83.26;101389.63;5003855;28;20334;-79
2021/12/06 11:34:54;;;;;;;0.20;0.20;;;;;;;2.78;82.77;101392.84;5020455;28;20326;-78
2021/12/06 11:37:25;;;;;;;0.27;0.27;;;;;;;2.79;82.90;101391.19;5004054;28;20291;-81
2021/12/06 11:40:00;;;;;;;0.20;0.20;;;;;;;2.74;82.84;101381.41;5021177;28;20320;-84
2021/12/06 11:42:25;;;;;;;0.40;0.40;;;;;;;2.78;82.97;101379.00;5037978;28;20296;-82
2021/12/06 11:44:51;;;;;;;0.20;0.20;;;;;;;2.77;83.27;101383.31;5021602;28;20311;-82
2021/12/06 11:47:19;;;;;;;0.33;0.33;;;;;;;2.78;82.34;101381.59;5022459;28;20034;-87
2021/12/06 11:49:54;;;;;;;0.20;0.20;;;;;;;2.72;82.65;101370.06;5022201;28;20448;-83